sensor_id;sensor_type;location;lat;lon;timestamp;temperature;humidity
26224;DHT22;14820;48.682;8.890;2023-02-23T00:01:28;8.10;99.90
26224;DHT22;14820;48.682;8.890;2023-02-23T00:03:58;8.10;99.90
26224;DHT22;14820;48.682;8.890;2023-02-23T00:06:25;8.10;99.90
26224;DHT22;14820;48.682;8.890;2023-02-23T00:08:51;8.10;99.90
26224;DHT22;14820;48.682;8.890;2023-02-23T00:11:18;8.10;99.90
26224;DHT22;14820;48.682;8.890;2023-02-23T00:13:46;8.10;99.90
26224;DHT22;14820;48.682;8.890;2023-02-23T00:16:16;8.00;99.90
26224;DHT22;14820;48.682;8.890;2023-02-23T00:18:44;8.00;99.90
26224;DHT22;14820;48.682;8.890;2023-02-23T00:21:14;8.00;99.90
26224;DHT22;14820;48.682;8.890;2023-02-23T00:23:42;8.00;99.90
26224;DHT22;14820;48.682;8.890;2023-02-23T00:26:07;8.00;99.90
26224;DHT22;14820;48.682;8.890;2023-02-23T00:28:33;8.00;99.90
26224;DHT22;14820;48.682;8.890;2023-02-23T00:31:01;8.00;99.90
26224;DHT22;14820;48.682;8.890;2023-02-23T00:33:27;7.90;99.90
26224;DHT22;14820;48.682;8.890;2023-02-23T00:35:54;7.90;99.90
26224;DHT22;14820;48.682;8.890;2023-02-23T00:38:20;7.90;99.90
26224;DHT22;14820;48.682;8.890;2023-02-23T00:40:46;7.90;99.90
26224;DHT22;14820;48.682;8.890;2023-02-23T00:43:11;7.90;99.90
26224;DHT22;14820;48.682;8.890;2023-02-23T00:45:37;7.80;99.90
26224;DHT22;14820;48.682;8.890;2023-02-23T00:48:03;7.90;99.90
26224;DHT22;14820;48.682;8.890;2023-02-23T00:50:35;7.90;99.90
26224;DHT22;14820;48.682;8.890;2023-02-23T00:53:03;8.00;99.90
26224;DHT22;14820;48.682;8.890;2023-02-23T00:55:29;8.00;99.90
26224;DHT22;14820;48.682;8.890;2023-02-23T00:57:55;7.90;99.90
26224;DHT22;14820;48.682;8.890;2023-02-23T01:00:22;7.90;99.90
26224;DHT22;14820;48.682;8.890;2023-02-23T01:02:50;7.90;99.90
26224;DHT22;14820;48.682;8.890;2023-02-23T01:05:15;8.00;99.90
26224;DHT22;14820;48.682;8.890;2023-02-23T01:07:41;8.00;99.90
26224;DHT22;14820;48.682;8.890;2023-02-23T01:10:11;8.00;99.90
26224;DHT22;14820;48.682;8.890;2023-02-23T01:12:46;8.00;99.90
26224;DHT22;14820;48.682;8.890;2023-02-23T01:15:12;8.00;99.90
26224;DHT22;14820;48.682;8.890;2023-02-23T01:17:38;8.00;99.90
26224;DHT22;14820;48.682;8.890;2023-02-23T01:20:04;7.90;99.90
26224;DHT22;14820;48.682;8.890;2023-02-23T01:22:48;7.90;99.90
26224;DHT22;14820;48.682;8.890;2023-02-23T01:25:15;7.90;99.90
26224;DHT22;14820;48.682;8.890;2023-02-23T01:27:42;7.90;99.90
26224;DHT22;14820;48.682;8.890;2023-02-23T01:30:09;7.90;99.90
26224;DHT22;14820;48.682;8.890;2023-02-23T01:32:36;7.90;99.90
26224;DHT22;14820;48.682;8.890;2023-02-23T01:35:09;7.90;99.90
26224;DHT22;14820;48.682;8.890;2023-02-23T01:37:36;7.90;99.90
26224;DHT22;14820;48.682;8.890;2023-02-23T01:40:06;7.90;99.90
26224;DHT22;14820;48.682;8.890;2023-02-23T01:42:38;7.80;99.90
26224;DHT22;14820;48.682;8.890;2023-02-23T01:45:22;7.80;99.90
26224;DHT22;14820;48.682;8.890;2023-02-23T01:47:51;7.80;99.90
26224;DHT22;14820;48.682;8.890;2023-02-23T01:50:17;7.90;99.90
26224;DHT22;14820;48.682;8.890;2023-02-23T01:52:45;7.90;99.90
26224;DHT22;14820;48.682;8.890;2023-02-23T01:55:12;7.80;99.90
26224;DHT22;14820;48.682;8.890;2023-02-23T01:57:39;7.80;99.90
26224;DHT22;14820;48.682;8.890;2023-02-23T02:00:07;7.80;99.90
26224;DHT22;14820;48.682;8.890;2023-02-23T02:02:39;7.90;99.90
26224;DHT22;14820;48.682;8.890;2023-02-23T02:05:06;7.90;99.90
26224;DHT22;14820;48.682;8.890;2023-02-23T02:07:38;7.90;99.90
26224;DHT22;14820;48.682;8.890;2023-02-23T02:10:05;7.90;99.90
26224;DHT22;14820;48.682;8.890;2023-02-23T02:12:41;8.00;99.90
26224;DHT22;14820;48.682;8.890;2023-02-23T02:15:09;7.90;99.90
26224;DHT22;14820;48.682;8.890;2023-02-23T02:26:17;7.90;99.90
26224;DHT22;14820;48.682;8.890;2023-02-23T02:37:44;8.00;99.90
26224;DHT22;14820;48.682;8.890;2023-02-23T02:40:31;8.00;99.90
26224;DHT22;14820;48.682;8.890;2023-02-23T02:43:11;8.00;99.90
26224;DHT22;14820;48.682;8.890;2023-02-23T02:48:21;8.00;99.90
26224;DHT22;14820;48.682;8.890;2023-02-23T02:51:15;7.90;99.90
26224;DHT22;14820;48.682;8.890;2023-02-23T02:53:54;8.00;99.90
26224;DHT22;14820;48.682;8.890;2023-02-23T02:56:24;8.00;99.90
26224;DHT22;14820;48.682;8.890;2023-02-23T02:58:52;8.00;99.90
26224;DHT22;14820;48.682;8.890;2023-02-23T03:01:18;8.00;99.90
26224;DHT22;14820;48.682;8.890;2023-02-23T03:04:20;8.00;99.90
26224;DHT22;14820;48.682;8.890;2023-02-23T03:07:15;8.00;99.90
26224;DHT22;14820;48.682;8.890;2023-02-23T03:10:02;8.00;99.90
26224;DHT22;14820;48.682;8.890;2023-02-23T03:16:15;7.90;99.90
26224;DHT22;14820;48.682;8.890;2023-02-23T03:19:21;7.90;99.90
26224;DHT22;14820;48.682;8.890;2023-02-23T03:22:23;7.90;99.90
26224;DHT22;14820;48.682;8.890;2023-02-23T03:25:31;7.90;99.90
26224;DHT22;14820;48.682;8.890;2023-02-23T03:28:25;7.90;99.90
26224;DHT22;14820;48.682;8.890;2023-02-23T03:34:38;7.90;99.90
26224;DHT22;14820;48.682;8.890;2023-02-23T03:37:31;7.90;99.90
26224;DHT22;14820;48.682;8.890;2023-02-23T03:40:24;7.90;99.90
26224;DHT22;14820;48.682;8.890;2023-02-23T03:43:15;7.90;99.90
26224;DHT22;14820;48.682;8.890;2023-02-23T03:46:02;7.90;99.90
26224;DHT22;14820;48.682;8.890;2023-02-23T03:48:49;7.90;99.90
26224;DHT22;14820;48.682;8.890;2023-02-23T03:51:36;7.90;99.90
26224;DHT22;14820;48.682;8.890;2023-02-23T03:54:37;8.00;99.90
26224;DHT22;14820;48.682;8.890;2023-02-23T03:57:24;8.00;99.90
26224;DHT22;14820;48.682;8.890;2023-02-23T04:00:14;8.00;99.90
26224;DHT22;14820;48.682;8.890;2023-02-23T04:03:02;8.00;99.90
26224;DHT22;14820;48.682;8.890;2023-02-23T04:05:48;8.00;99.90
26224;DHT22;14820;48.682;8.890;2023-02-23T04:08:36;7.90;99.90
26224;DHT22;14820;48.682;8.890;2023-02-23T04:11:27;7.90;99.90
26224;DHT22;14820;48.682;8.890;2023-02-23T04:14:26;7.90;99.90
26224;DHT22;14820;48.682;8.890;2023-02-23T04:16:55;7.90;99.90
26224;DHT22;14820;48.682;8.890;2023-02-23T04:19:22;7.90;99.90
26224;DHT22;14820;48.682;8.890;2023-02-23T04:21:50;7.90;99.90
26224;DHT22;14820;48.682;8.890;2023-02-23T04:24:15;8.00;99.90
26224;DHT22;14820;48.682;8.890;2023-02-23T04:26:41;7.90;99.90
26224;DHT22;14820;48.682;8.890;2023-02-23T04:29:07;7.90;99.90
26224;DHT22;14820;48.682;8.890;2023-02-23T04:31:32;7.90;99.90
26224;DHT22;14820;48.682;8.890;2023-02-23T04:33:58;7.90;99.90
26224;DHT22;14820;48.682;8.890;2023-02-23T04:36:24;7.90;99.90
26224;DHT22;14820;48.682;8.890;2023-02-23T04:38:51;7.90;99.90
26224;DHT22;14820;48.682;8.890;2023-02-23T04:41:16;7.90;99.90
26224;DHT22;14820;48.682;8.890;2023-02-23T04:43:43;7.90;99.90
26224;DHT22;14820;48.682;8.890;2023-02-23T04:46:08;7.90;99.90
26224;DHT22;14820;48.682;8.890;2023-02-23T04:48:34;7.90;99.90
26224;DHT22;14820;48.682;8.890;2023-02-23T04:51:00;7.90;99.90
26224;DHT22;14820;48.682;8.890;2023-02-23T04:53:25;7.90;99.90
26224;DHT22;14820;48.682;8.890;2023-02-23T04:55:51;7.90;99.90
26224;DHT22;14820;48.682;8.890;2023-02-23T04:58:17;7.80;99.90
26224;DHT22;14820;48.682;8.890;2023-02-23T05:00:42;7.80;99.90
26224;DHT22;14820;48.682;8.890;2023-02-23T05:03:08;7.80;99.90
26224;DHT22;14820;48.682;8.890;2023-02-23T05:05:35;7.80;99.90
26224;DHT22;14820;48.682;8.890;2023-02-23T05:08:00;7.80;99.90
26224;DHT22;14820;48.682;8.890;2023-02-23T05:10:26;7.80;99.90
26224;DHT22;14820;48.682;8.890;2023-02-23T05:12:53;7.70;99.90
26224;DHT22;14820;48.682;8.890;2023-02-23T05:15:19;7.80;99.90
26224;DHT22;14820;48.682;8.890;2023-02-23T05:17:45;7.70;99.90
26224;DHT22;14820;48.682;8.890;2023-02-23T05:20:13;7.70;99.90
26224;DHT22;14820;48.682;8.890;2023-02-23T05:22:39;7.70;99.90
26224;DHT22;14820;48.682;8.890;2023-02-23T05:25:06;7.70;99.90
26224;DHT22;14820;48.682;8.890;2023-02-23T05:27:32;7.70;99.90
26224;DHT22;14820;48.682;8.890;2023-02-23T05:29:59;7.70;99.90
26224;DHT22;14820;48.682;8.890;2023-02-23T05:32:25;7.80;99.90
26224;DHT22;14820;48.682;8.890;2023-02-23T05:34:51;7.80;99.90
26224;DHT22;14820;48.682;8.890;2023-02-23T05:37:17;7.70;99.90
26224;DHT22;14820;48.682;8.890;2023-02-23T05:39:43;7.80;99.90
26224;DHT22;14820;48.682;8.890;2023-02-23T05:42:08;7.70;99.90
26224;DHT22;14820;48.682;8.890;2023-02-23T05:44:34;7.80;99.90
26224;DHT22;14820;48.682;8.890;2023-02-23T05:47:00;7.70;99.90
26224;DHT22;14820;48.682;8.890;2023-02-23T05:49:26;7.70;99.90
26224;DHT22;14820;48.682;8.890;2023-02-23T05:51:51;7.70;99.90
26224;DHT22;14820;48.682;8.890;2023-02-23T05:54:17;7.70;99.90
26224;DHT22;14820;48.682;8.890;2023-02-23T05:56:43;7.70;99.90
26224;DHT22;14820;48.682;8.890;2023-02-23T05:59:09;7.70;99.90
26224;DHT22;14820;48.682;8.890;2023-02-23T06:01:38;7.70;99.90
26224;DHT22;14820;48.682;8.890;2023-02-23T06:04:04;7.70;99.90
26224;DHT22;14820;48.682;8.890;2023-02-23T06:06:29;7.70;99.90
26224;DHT22;14820;48.682;8.890;2023-02-23T06:08:55;7.70;99.90
26224;DHT22;14820;48.682;8.890;2023-02-23T06:11:21;7.70;99.90
26224;DHT22;14820;48.682;8.890;2023-02-23T06:13:47;7.70;99.90
26224;DHT22;14820;48.682;8.890;2023-02-23T06:16:14;7.70;99.90
26224;DHT22;14820;48.682;8.890;2023-02-23T06:18:39;7.70;99.90
26224;DHT22;14820;48.682;8.890;2023-02-23T06:21:05;7.70;99.90
26224;DHT22;14820;48.682;8.890;2023-02-23T06:23:31;7.70;99.90
26224;DHT22;14820;48.682;8.890;2023-02-23T06:25:58;7.70;99.90
26224;DHT22;14820;48.682;8.890;2023-02-23T06:28:25;7.70;99.90
26224;DHT22;14820;48.682;8.890;2023-02-23T06:30:51;7.70;99.90
26224;DHT22;14820;48.682;8.890;2023-02-23T06:33:17;7.60;99.90
26224;DHT22;14820;48.682;8.890;2023-02-23T06:35:43;7.70;99.90
26224;DHT22;14820;48.682;8.890;2023-02-23T06:38:10;7.70;99.90
26224;DHT22;14820;48.682;8.890;2023-02-23T06:40:37;7.70;99.90
26224;DHT22;14820;48.682;8.890;2023-02-23T06:43:02;7.60;99.90
26224;DHT22;14820;48.682;8.890;2023-02-23T06:45:29;7.60;99.90
26224;DHT22;14820;48.682;8.890;2023-02-23T06:47:57;7.60;99.90
26224;DHT22;14820;48.682;8.890;2023-02-23T06:50:22;7.50;99.90
26224;DHT22;14820;48.682;8.890;2023-02-23T06:52:48;7.50;99.90
26224;DHT22;14820;48.682;8.890;2023-02-23T06:55:14;7.60;99.90
26224;DHT22;14820;48.682;8.890;2023-02-23T06:57:40;7.60;99.90
26224;DHT22;14820;48.682;8.890;2023-02-23T07:00:07;7.60;99.90
26224;DHT22;14820;48.682;8.890;2023-02-23T07:02:33;7.60;99.90
26224;DHT22;14820;48.682;8.890;2023-02-23T07:05:01;7.60;99.90
26224;DHT22;14820;48.682;8.890;2023-02-23T07:07:26;7.60;99.90
26224;DHT22;14820;48.682;8.890;2023-02-23T07:09:52;7.60;99.90
26224;DHT22;14820;48.682;8.890;2023-02-23T07:12:18;7.60;99.90
26224;DHT22;14820;48.682;8.890;2023-02-23T07:14:43;7.60;99.90
26224;DHT22;14820;48.682;8.890;2023-02-23T07:17:09;7.60;99.90
26224;DHT22;14820;48.682;8.890;2023-02-23T07:19:36;7.60;99.90
26224;DHT22;14820;48.682;8.890;2023-02-23T07:22:01;7.60;99.90
26224;DHT22;14820;48.682;8.890;2023-02-23T07:24:27;7.60;99.90
26224;DHT22;14820;48.682;8.890;2023-02-23T07:26:53;7.60;99.90
26224;DHT22;14820;48.682;8.890;2023-02-23T07:29:19;7.60;99.90
26224;DHT22;14820;48.682;8.890;2023-02-23T07:31:45;7.50;99.90
26224;DHT22;14820;48.682;8.890;2023-02-23T07:34:11;7.60;99.90
26224;DHT22;14820;48.682;8.890;2023-02-23T07:36:36;7.60;99.90
26224;DHT22;14820;48.682;8.890;2023-02-23T07:39:03;7.70;99.90
26224;DHT22;14820;48.682;8.890;2023-02-23T07:41:29;7.70;99.90
26224;DHT22;14820;48.682;8.890;2023-02-23T07:43:55;7.70;99.90
26224;DHT22;14820;48.682;8.890;2023-02-23T07:46:20;7.80;99.90
26224;DHT22;14820;48.682;8.890;2023-02-23T07:48:46;7.70;99.90
26224;DHT22;14820;48.682;8.890;2023-02-23T07:51:13;7.70;99.90
26224;DHT22;14820;48.682;8.890;2023-02-23T07:53:40;7.80;99.90
26224;DHT22;14820;48.682;8.890;2023-02-23T07:56:07;7.80;99.90
26224;DHT22;14820;48.682;8.890;2023-02-23T07:58:37;7.80;99.90
26224;DHT22;14820;48.682;8.890;2023-02-23T08:01:04;7.90;99.90
26224;DHT22;14820;48.682;8.890;2023-02-23T08:03:30;7.90;99.90
26224;DHT22;14820;48.682;8.890;2023-02-23T08:05:55;7.90;99.90
26224;DHT22;14820;48.682;8.890;2023-02-23T08:08:22;8.00;99.90
26224;DHT22;14820;48.682;8.890;2023-02-23T08:10:47;8.00;99.90
26224;DHT22;14820;48.682;8.890;2023-02-23T08:13:14;8.00;99.90
26224;DHT22;14820;48.682;8.890;2023-02-23T08:15:40;8.10;99.90
26224;DHT22;14820;48.682;8.890;2023-02-23T08:18:06;8.10;99.90
26224;DHT22;14820;48.682;8.890;2023-02-23T08:20:32;8.20;99.90
26224;DHT22;14820;48.682;8.890;2023-02-23T08:22:57;8.30;99.90
26224;DHT22;14820;48.682;8.890;2023-02-23T08:25:24;8.30;99.90
26224;DHT22;14820;48.682;8.890;2023-02-23T08:27:52;8.30;99.90
26224;DHT22;14820;48.682;8.890;2023-02-23T08:30:22;8.40;99.90
26224;DHT22;14820;48.682;8.890;2023-02-23T08:32:49;8.40;99.90
26224;DHT22;14820;48.682;8.890;2023-02-23T08:35:15;8.50;99.90
26224;DHT22;14820;48.682;8.890;2023-02-23T08:37:43;8.50;99.90
26224;DHT22;14820;48.682;8.890;2023-02-23T08:40:10;8.50;99.90
26224;DHT22;14820;48.682;8.890;2023-02-23T08:42:36;8.50;99.90
26224;DHT22;14820;48.682;8.890;2023-02-23T08:45:02;8.60;99.90
26224;DHT22;14820;48.682;8.890;2023-02-23T08:47:27;8.60;99.90
26224;DHT22;14820;48.682;8.890;2023-02-23T08:49:54;8.70;99.90
26224;DHT22;14820;48.682;8.890;2023-02-23T08:52:20;8.70;99.90
26224;DHT22;14820;48.682;8.890;2023-02-23T08:54:46;8.80;99.90
26224;DHT22;14820;48.682;8.890;2023-02-23T08:57:11;8.90;99.90
26224;DHT22;14820;48.682;8.890;2023-02-23T08:59:37;8.90;99.90
26224;DHT22;14820;48.682;8.890;2023-02-23T09:02:04;9.00;99.90
26224;DHT22;14820;48.682;8.890;2023-02-23T09:04:33;9.00;99.90
26224;DHT22;14820;48.682;8.890;2023-02-23T09:07:02;9.00;99.90
26224;DHT22;14820;48.682;8.890;2023-02-23T09:09:28;9.10;99.90
26224;DHT22;14820;48.682;8.890;2023-02-23T09:11:54;9.10;99.90
26224;DHT22;14820;48.682;8.890;2023-02-23T09:14:20;9.20;99.90
26224;DHT22;14820;48.682;8.890;2023-02-23T09:16:46;9.20;99.90
26224;DHT22;14820;48.682;8.890;2023-02-23T09:19:12;9.30;99.90
26224;DHT22;14820;48.682;8.890;2023-02-23T09:21:38;9.40;99.90
26224;DHT22;14820;48.682;8.890;2023-02-23T09:24:04;9.40;99.90
26224;DHT22;14820;48.682;8.890;2023-02-23T09:26:31;9.50;99.90
26224;DHT22;14820;48.682;8.890;2023-02-23T09:28:59;9.50;99.90
26224;DHT22;14820;48.682;8.890;2023-02-23T09:31:25;9.60;99.90
26224;DHT22;14820;48.682;8.890;2023-02-23T09:33:52;9.60;99.90
26224;DHT22;14820;48.682;8.890;2023-02-23T09:36:20;9.70;99.90
26224;DHT22;14820;48.682;8.890;2023-02-23T09:38:49;9.80;99.90
26224;DHT22;14820;48.682;8.890;2023-02-23T09:44:06;10.00;99.90
26224;DHT22;14820;48.682;8.890;2023-02-23T09:49:34;10.10;99.90
26224;DHT22;14820;48.682;8.890;2023-02-23T09:52:02;10.10;99.90
26224;DHT22;14820;48.682;8.890;2023-02-23T09:54:33;10.20;99.90
26224;DHT22;14820;48.682;8.890;2023-02-23T09:57:02;10.20;99.90
26224;DHT22;14820;48.682;8.890;2023-02-23T09:59:29;10.20;99.90
26224;DHT22;14820;48.682;8.890;2023-02-23T10:02:20;10.30;99.90
26224;DHT22;14820;48.682;8.890;2023-02-23T10:04:58;10.30;99.90
26224;DHT22;14820;48.682;8.890;2023-02-23T10:12:31;10.40;99.90
26224;DHT22;14820;48.682;8.890;2023-02-23T10:18:33;10.50;99.90
26224;DHT22;14820;48.682;8.890;2023-02-23T10:21:13;10.60;99.90
26224;DHT22;14820;48.682;8.890;2023-02-23T10:23:57;10.60;99.90
26224;DHT22;14820;48.682;8.890;2023-02-23T10:26:26;10.70;99.90
26224;DHT22;14820;48.682;8.890;2023-02-23T10:28:57;10.70;99.90
26224;DHT22;14820;48.682;8.890;2023-02-23T10:31:33;10.70;99.90
26224;DHT22;14820;48.682;8.890;2023-02-23T10:34:04;10.70;99.90
26224;DHT22;14820;48.682;8.890;2023-02-23T10:39:03;10.70;99.90
26224;DHT22;14820;48.682;8.890;2023-02-23T10:41:30;10.80;99.90
26224;DHT22;14820;48.682;8.890;2023-02-23T10:43:56;10.80;99.90
26224;DHT22;14820;48.682;8.890;2023-02-23T10:46:25;10.80;99.90
26224;DHT22;14820;48.682;8.890;2023-02-23T10:48:54;10.80;99.90
26224;DHT22;14820;48.682;8.890;2023-02-23T10:51:26;10.80;99.90
26224;DHT22;14820;48.682;8.890;2023-02-23T10:53:53;10.80;99.90
26224;DHT22;14820;48.682;8.890;2023-02-23T10:56:20;10.80;99.90
26224;DHT22;14820;48.682;8.890;2023-02-23T10:58:47;10.80;99.90
26224;DHT22;14820;48.682;8.890;2023-02-23T11:02:03;10.80;99.90
26224;DHT22;14820;48.682;8.890;2023-02-23T11:04:32;10.90;99.90
26224;DHT22;14820;48.682;8.890;2023-02-23T11:09:30;11.00;99.90
26224;DHT22;14820;48.682;8.890;2023-02-23T11:12:00;11.00;99.90
26224;DHT22;14820;48.682;8.890;2023-02-23T11:14:34;11.00;99.90
26224;DHT22;14820;48.682;8.890;2023-02-23T11:18:04;11.10;99.90
26224;DHT22;14820;48.682;8.890;2023-02-23T11:20:36;11.20;99.90
26224;DHT22;14820;48.682;8.890;2023-02-23T11:23:33;11.30;99.90
26224;DHT22;14820;48.682;8.890;2023-02-23T11:29:15;11.40;99.90
26224;DHT22;14820;48.682;8.890;2023-02-23T11:31:55;11.40;99.90
26224;DHT22;14820;48.682;8.890;2023-02-23T11:34:31;11.40;99.90
26224;DHT22;14820;48.682;8.890;2023-02-23T11:37:04;11.40;99.90
26224;DHT22;14820;48.682;8.890;2023-02-23T11:39:31;11.40;99.90
26224;DHT22;14820;48.682;8.890;2023-02-23T11:42:15;11.40;99.90
26224;DHT22;14820;48.682;8.890;2023-02-23T11:44:42;11.50;99.90
26224;DHT22;14820;48.682;8.890;2023-02-23T11:47:20;11.40;99.90
26224;DHT22;14820;48.682;8.890;2023-02-23T11:49:47;11.50;99.90
26224;DHT22;14820;48.682;8.890;2023-02-23T11:52:19;11.50;99.90
26224;DHT22;14820;48.682;8.890;2023-02-23T11:55:15;11.50;99.90
26224;DHT22;14820;48.682;8.890;2023-02-23T11:57:42;11.50;99.90
26224;DHT22;14820;48.682;8.890;2023-02-23T12:00:11;11.50;99.90
26224;DHT22;14820;48.682;8.890;2023-02-23T12:02:48;11.50;99.90
26224;DHT22;14820;48.682;8.890;2023-02-23T12:08:05;11.50;99.90
26224;DHT22;14820;48.682;8.890;2023-02-23T12:10:42;11.50;99.90
26224;DHT22;14820;48.682;8.890;2023-02-23T12:13:29;11.40;99.90
26224;DHT22;14820;48.682;8.890;2023-02-23T12:16:10;11.40;99.90
26224;DHT22;14820;48.682;8.890;2023-02-23T12:23:45;11.50;99.90
26224;DHT22;14820;48.682;8.890;2023-02-23T12:26:18;11.60;99.90
26224;DHT22;14820;48.682;8.890;2023-02-23T12:29:04;11.60;99.90
26224;DHT22;14820;48.682;8.890;2023-02-23T12:31:48;11.60;99.90
26224;DHT22;14820;48.682;8.890;2023-02-23T12:34:30;11.60;99.90
26224;DHT22;14820;48.682;8.890;2023-02-23T12:37:08;11.60;99.90
26224;DHT22;14820;48.682;8.890;2023-02-23T12:39:42;11.60;99.90
26224;DHT22;14820;48.682;8.890;2023-02-23T12:42:47;11.60;99.90
26224;DHT22;14820;48.682;8.890;2023-02-23T12:45:33;11.60;99.90
26224;DHT22;14820;48.682;8.890;2023-02-23T12:48:07;11.50;99.90
26224;DHT22;14820;48.682;8.890;2023-02-23T12:50:40;11.50;99.90
26224;DHT22;14820;48.682;8.890;2023-02-23T12:53:20;11.50;99.90
26224;DHT22;14820;48.682;8.890;2023-02-23T12:56:12;11.50;99.90
26224;DHT22;14820;48.682;8.890;2023-02-23T13:01:38;11.50;99.90
26224;DHT22;14820;48.682;8.890;2023-02-23T13:12:42;11.40;99.90
26224;DHT22;14820;48.682;8.890;2023-02-23T13:15:29;11.40;99.90
26224;DHT22;14820;48.682;8.890;2023-02-23T13:31:44;11.30;99.90
26224;DHT22;14820;48.682;8.890;2023-02-23T13:34:15;11.30;99.90
26224;DHT22;14820;48.682;8.890;2023-02-23T13:36:45;11.30;99.90
26224;DHT22;14820;48.682;8.890;2023-02-23T13:39:39;11.30;99.90
26224;DHT22;14820;48.682;8.890;2023-02-23T13:44:44;11.40;99.90
26224;DHT22;14820;48.682;8.890;2023-02-23T13:50:17;11.40;99.90
26224;DHT22;14820;48.682;8.890;2023-02-23T13:52:47;11.40;99.90
26224;DHT22;14820;48.682;8.890;2023-02-23T13:58:14;11.40;99.90
26224;DHT22;14820;48.682;8.890;2023-02-23T14:00:41;11.40;99.90
26224;DHT22;14820;48.682;8.890;2023-02-23T14:03:20;11.30;99.90
26224;DHT22;14820;48.682;8.890;2023-02-23T14:05:45;11.30;99.90
26224;DHT22;14820;48.682;8.890;2023-02-23T14:08:28;11.30;99.90
26224;DHT22;14820;48.682;8.890;2023-02-23T14:10:55;11.20;99.90
26224;DHT22;14820;48.682;8.890;2023-02-23T14:13:57;11.30;99.90
26224;DHT22;14820;48.682;8.890;2023-02-23T14:16:24;11.30;99.90
26224;DHT22;14820;48.682;8.890;2023-02-23T14:19:03;11.30;99.90
26224;DHT22;14820;48.682;8.890;2023-02-23T14:21:55;11.40;99.90
26224;DHT22;14820;48.682;8.890;2023-02-23T14:24:23;11.40;99.90
26224;DHT22;14820;48.682;8.890;2023-02-23T14:27:21;11.40;99.90
26224;DHT22;14820;48.682;8.890;2023-02-23T14:32:43;11.60;99.90
26224;DHT22;14820;48.682;8.890;2023-02-23T14:38:04;11.70;99.90
26224;DHT22;14820;48.682;8.890;2023-02-23T14:40:38;11.70;99.90
26224;DHT22;14820;48.682;8.890;2023-02-23T14:46:00;11.60;99.90
26224;DHT22;14820;48.682;8.890;2023-02-23T14:48:30;11.60;99.90
26224;DHT22;14820;48.682;8.890;2023-02-23T14:51:13;11.50;99.90
26224;DHT22;14820;48.682;8.890;2023-02-23T14:53:41;11.50;99.90
26224;DHT22;14820;48.682;8.890;2023-02-23T14:56:20;11.50;99.90
26224;DHT22;14820;48.682;8.890;2023-02-23T14:58:53;11.50;99.90
26224;DHT22;14820;48.682;8.890;2023-02-23T15:01:33;11.40;99.90
26224;DHT22;14820;48.682;8.890;2023-02-23T15:06:32;11.40;99.90
26224;DHT22;14820;48.682;8.890;2023-02-23T15:08:58;11.30;99.90
26224;DHT22;14820;48.682;8.890;2023-02-23T15:11:24;11.30;99.90
26224;DHT22;14820;48.682;8.890;2023-02-23T15:13:51;11.30;99.90
26224;DHT22;14820;48.682;8.890;2023-02-23T15:16:34;11.20;99.90
26224;DHT22;14820;48.682;8.890;2023-02-23T15:19:02;11.20;99.90
26224;DHT22;14820;48.682;8.890;2023-02-23T15:21:29;11.10;99.90
26224;DHT22;14820;48.682;8.890;2023-02-23T15:24:04;11.10;99.90
26224;DHT22;14820;48.682;8.890;2023-02-23T15:26:36;11.10;99.90
26224;DHT22;14820;48.682;8.890;2023-02-23T15:29:32;11.10;99.90
26224;DHT22;14820;48.682;8.890;2023-02-23T15:32:15;11.10;99.90
26224;DHT22;14820;48.682;8.890;2023-02-23T15:34:42;11.10;99.90
26224;DHT22;14820;48.682;8.890;2023-02-23T15:37:29;11.10;99.90
26224;DHT22;14820;48.682;8.890;2023-02-23T15:40:00;11.10;99.90
26224;DHT22;14820;48.682;8.890;2023-02-23T15:42:38;11.10;99.90
26224;DHT22;14820;48.682;8.890;2023-02-23T15:45:26;11.10;99.90
26224;DHT22;14820;48.682;8.890;2023-02-23T15:47:56;11.00;99.90
26224;DHT22;14820;48.682;8.890;2023-02-23T15:50:33;11.00;99.90
26224;DHT22;14820;48.682;8.890;2023-02-23T15:53:23;11.00;99.90
26224;DHT22;14820;48.682;8.890;2023-02-23T15:55:54;11.00;99.90
26224;DHT22;14820;48.682;8.890;2023-02-23T15:58:24;10.90;99.90
26224;DHT22;14820;48.682;8.890;2023-02-23T16:00:58;10.90;99.90
26224;DHT22;14820;48.682;8.890;2023-02-23T16:03:32;10.90;99.90
26224;DHT22;14820;48.682;8.890;2023-02-23T16:06:07;10.80;99.90
26224;DHT22;14820;48.682;8.890;2023-02-23T16:09:45;10.80;99.90
26224;DHT22;14820;48.682;8.890;2023-02-23T16:12:01;10.70;99.90
26224;DHT22;14820;48.682;8.890;2023-02-23T16:17:06;10.70;99.90
26224;DHT22;14820;48.682;8.890;2023-02-23T16:19:32;10.70;99.90
26224;DHT22;14820;48.682;8.890;2023-02-23T16:21:57;10.60;99.90
26224;DHT22;14820;48.682;8.890;2023-02-23T16:24:26;10.60;99.90
26224;DHT22;14820;48.682;8.890;2023-02-23T16:26:59;10.60;99.90
26224;DHT22;14820;48.682;8.890;2023-02-23T16:29:29;10.60;99.90
26224;DHT22;14820;48.682;8.890;2023-02-23T16:31:59;10.60;99.90
26224;DHT22;14820;48.682;8.890;2023-02-23T16:37:02;10.50;99.90
26224;DHT22;14820;48.682;8.890;2023-02-23T16:39:29;10.50;99.90
26224;DHT22;14820;48.682;8.890;2023-02-23T16:41:58;10.40;99.90
26224;DHT22;14820;48.682;8.890;2023-02-23T16:44:28;10.40;99.90
26224;DHT22;14820;48.682;8.890;2023-02-23T16:47:10;10.40;99.90
26224;DHT22;14820;48.682;8.890;2023-02-23T16:49:37;10.40;99.90
26224;DHT22;14820;48.682;8.890;2023-02-23T16:52:11;10.30;99.90
26224;DHT22;14820;48.682;8.890;2023-02-23T16:54:39;10.30;99.90
26224;DHT22;14820;48.682;8.890;2023-02-23T16:57:15;10.20;99.90
26224;DHT22;14820;48.682;8.890;2023-02-23T16:59:42;10.20;99.90
26224;DHT22;14820;48.682;8.890;2023-02-23T17:02:10;10.20;99.90
26224;DHT22;14820;48.682;8.890;2023-02-23T17:04:38;10.10;99.90
26224;DHT22;14820;48.682;8.890;2023-02-23T17:07:03;10.20;99.90
26224;DHT22;14820;48.682;8.890;2023-02-23T17:09:29;10.10;99.90
26224;DHT22;14820;48.682;8.890;2023-02-23T17:11:54;10.10;99.90
26224;DHT22;14820;48.682;8.890;2023-02-23T17:14:26;10.10;99.90
26224;DHT22;14820;48.682;8.890;2023-02-23T17:16:52;10.10;99.90
26224;DHT22;14820;48.682;8.890;2023-02-23T17:19:18;10.10;99.90
26224;DHT22;14820;48.682;8.890;2023-02-23T17:21:45;10.00;99.90
26224;DHT22;14820;48.682;8.890;2023-02-23T17:24:10;9.90;99.90
26224;DHT22;14820;48.682;8.890;2023-02-23T17:26:36;9.80;99.90
26224;DHT22;14820;48.682;8.890;2023-02-23T17:29:04;9.80;99.90
26224;DHT22;14820;48.682;8.890;2023-02-23T17:31:29;9.70;99.90
26224;DHT22;14820;48.682;8.890;2023-02-23T17:33:56;9.70;99.90
26224;DHT22;14820;48.682;8.890;2023-02-23T17:36:22;9.70;99.90
26224;DHT22;14820;48.682;8.890;2023-02-23T17:38:48;9.70;99.90
26224;DHT22;14820;48.682;8.890;2023-02-23T17:41:16;9.70;99.90
26224;DHT22;14820;48.682;8.890;2023-02-23T17:43:42;9.70;99.90
26224;DHT22;14820;48.682;8.890;2023-02-23T17:46:08;9.70;99.90
26224;DHT22;14820;48.682;8.890;2023-02-23T17:48:34;9.70;99.90
26224;DHT22;14820;48.682;8.890;2023-02-23T17:51:07;9.70;99.90
26224;DHT22;14820;48.682;8.890;2023-02-23T17:53:33;9.60;99.90
26224;DHT22;14820;48.682;8.890;2023-02-23T17:55:59;9.60;99.90